sensor_id;sensor_type;location;lat;lon;timestamp;pressure;altitude;pressure_sealevel;temperature;humidity
41654;BME280;68687;52.030;7.110;2023-07-31T00:00:10;100263.16;;;14.40;100.00
41654;BME280;68687;52.030;7.110;2023-07-31T00:02:36;100251.50;;;14.52;100.00
41654;BME280;68687;52.030;7.110;2023-07-31T00:05:01;100259.84;;;14.38;100.00
41654;BME280;68687;52.030;7.110;2023-07-31T00:07:26;100267.28;;;14.42;100.00
41654;BME280;68687;52.030;7.110;2023-07-31T00:09:52;100261.38;;;14.27;100.00
41654;BME280;68687;52.030;7.110;2023-07-31T00:12:19;100257.13;;;14.44;100.00
41654;BME280;68687;52.030;7.110;2023-07-31T00:14:44;100256.50;;;14.42;100.00
41654;BME280;68687;52.030;7.110;2023-07-31T00:17:09;100253.44;;;14.32;100.00
41654;BME280;68687;52.030;7.110;2023-07-31T00:19:35;100253.19;;;14.40;100.00
41654;BME280;68687;52.030;7.110;2023-07-31T00:22:00;100232.63;;;14.39;100.00
41654;BME280;68687;52.030;7.110;2023-07-31T00:24:25;100246.19;;;14.33;100.00
41654;BME280;68687;52.030;7.110;2023-07-31T00:26:51;100257.44;;;14.23;100.00
41654;BME280;68687;52.030;7.110;2023-07-31T00:29:16;100247.88;;;14.27;100.00
41654;BME280;68687;52.030;7.110;2023-07-31T00:31:41;100242.03;;;14.30;100.00
41654;BME280;68687;52.030;7.110;2023-07-31T00:34:06;100240.81;;;14.26;100.00
41654;BME280;68687;52.030;7.110;2023-07-31T00:36:32;100240.38;;;14.29;100.00
41654;BME280;68687;52.030;7.110;2023-07-31T00:38:57;100243.09;;;14.22;100.00
41654;BME280;68687;52.030;7.110;2023-07-31T00:41:22;100243.75;;;14.25;100.00
41654;BME280;68687;52.030;7.110;2023-07-31T00:43:48;100243.53;;;14.26;100.00
41654;BME280;68687;52.030;7.110;2023-07-31T00:46:13;100243.16;;;14.16;100.00
41654;BME280;68687;52.030;7.110;2023-07-31T00:48:39;100235.75;;;14.36;100.00
41654;BME280;68687;52.030;7.110;2023-07-31T00:51:04;100230.25;;;14.25;100.00
41654;BME280;68687;52.030;7.110;2023-07-31T00:53:29;100229.59;;;14.22;100.00
41654;BME280;68687;52.030;7.110;2023-07-31T00:55:55;100230.25;;;14.18;100.00
41654;BME280;68687;52.030;7.110;2023-07-31T00:58:21;100229.38;;;14.31;100.00
41654;BME280;68687;52.030;7.110;2023-07-31T01:00:46;100226.06;;;14.29;100.00
41654;BME280;68687;52.030;7.110;2023-07-31T01:03:12;100234.19;;;14.22;100.00
41654;BME280;68687;52.030;7.110;2023-07-31T01:08:27;100229.59;;;14.29;100.00
41654;BME280;68687;52.030;7.110;2023-07-31T01:10:58;100223.31;;;14.35;100.00
41654;BME280;68687;52.030;7.110;2023-07-31T01:13:25;100219.91;;;14.15;100.00
41654;BME280;68687;52.030;7.110;2023-07-31T01:15:51;100213.00;;;14.19;100.00
41654;BME280;68687;52.030;7.110;2023-07-31T01:18:16;100212.16;;;14.25;100.00
41654;BME280;68687;52.030;7.110;2023-07-31T01:20:42;100207.16;;;14.29;100.00
41654;BME280;68687;52.030;7.110;2023-07-31T01:23:22;100202.19;;;14.26;100.00
41654;BME280;68687;52.030;7.110;2023-07-31T01:25:56;100195.59;;;14.15;100.00
41654;BME280;68687;52.030;7.110;2023-07-31T01:28:29;100198.91;;;14.17;100.00
41654;BME280;68687;52.030;7.110;2023-07-31T01:30:58;100192.03;;;14.21;100.00
41654;BME280;68687;52.030;7.110;2023-07-31T01:33:25;100185.28;;;14.05;100.00
41654;BME280;68687;52.030;7.110;2023-07-31T01:35:51;100186.47;;;14.16;100.00
41654;BME280;68687;52.030;7.110;2023-07-31T01:38:20;100187.78;;;14.07;100.00
41654;BME280;68687;52.030;7.110;2023-07-31T01:40:51;100185.28;;;14.05;100.00
41654;BME280;68687;52.030;7.110;2023-07-31T01:43:16;100183.75;;;14.16;100.00
41654;BME280;68687;52.030;7.110;2023-07-31T01:45:41;100182.75;;;14.10;100.00
41654;BME280;68687;52.030;7.110;2023-07-31T01:48:07;100181.50;;;14.13;100.00
41654;BME280;68687;52.030;7.110;2023-07-31T01:50:32;100180.88;;;14.11;100.00
41654;BME280;68687;52.030;7.110;2023-07-31T01:52:57;100180.59;;;14.26;100.00
41654;BME280;68687;52.030;7.110;2023-07-31T01:55:22;100171.47;;;14.27;100.00
41654;BME280;68687;52.030;7.110;2023-07-31T01:57:48;100176.19;;;14.31;100.00
41654;BME280;68687;52.030;7.110;2023-07-31T02:00:13;100166.81;;;14.34;100.00
41654;BME280;68687;52.030;7.110;2023-07-31T02:02:39;100160.75;;;14.45;100.00
41654;BME280;68687;52.030;7.110;2023-07-31T02:05:04;100156.53;;;14.49;100.00
41654;BME280;68687;52.030;7.110;2023-07-31T02:07:30;100151.72;;;14.58;100.00
41654;BME280;68687;52.030;7.110;2023-07-31T02:09:55;100157.06;;;14.64;100.00
41654;BME280;68687;52.030;7.110;2023-07-31T02:12:21;100147.22;;;14.70;100.00
41654;BME280;68687;52.030;7.110;2023-07-31T02:14:46;100144.47;;;14.76;100.00
41654;BME280;68687;52.030;7.110;2023-07-31T02:17:11;100149.38;;;14.86;100.00
41654;BME280;68687;52.030;7.110;2023-07-31T02:19:36;100145.16;;;14.90;100.00
41654;BME280;68687;52.030;7.110;2023-07-31T02:22:02;100142.03;;;14.93;100.00
41654;BME280;68687;52.030;7.110;2023-07-31T02:24:27;100131.59;;;14.97;100.00
41654;BME280;68687;52.030;7.110;2023-07-31T02:26:53;100136.75;;;14.98;100.00
41654;BME280;68687;52.030;7.110;2023-07-31T02:29:18;100137.13;;;15.02;100.00
41654;BME280;68687;52.030;7.110;2023-07-31T02:31:43;100134.16;;;15.10;100.00
41654;BME280;68687;52.030;7.110;2023-07-31T02:34:08;100141.50;;;15.21;100.00
41654;BME280;68687;52.030;7.110;2023-07-31T02:36:34;100127.16;;;15.21;100.00
41654;BME280;68687;52.030;7.110;2023-07-31T02:38:59;100133.31;;;15.28;100.00
41654;BME280;68687;52.030;7.110;2023-07-31T02:41:24;100122.34;;;15.23;100.00
41654;BME280;68687;52.030;7.110;2023-07-31T02:43:50;100139.09;;;15.31;100.00
41654;BME280;68687;52.030;7.110;2023-07-31T02:46:15;100127.63;;;15.36;100.00
41654;BME280;68687;52.030;7.110;2023-07-31T02:48:40;100125.16;;;15.34;100.00
41654;BME280;68687;52.030;7.110;2023-07-31T02:51:05;100129.69;;;15.34;100.00
41654;BME280;68687;52.030;7.110;2023-07-31T02:53:31;100122.63;;;15.33;100.00
41654;BME280;68687;52.030;7.110;2023-07-31T02:55:56;100120.31;;;15.36;100.00
41654;BME280;68687;52.030;7.110;2023-07-31T02:58:21;100109.28;;;15.38;100.00
41654;BME280;68687;52.030;7.110;2023-07-31T03:00:47;100113.03;;;15.37;100.00
41654;BME280;68687;52.030;7.110;2023-07-31T03:03:12;100114.22;;;15.41;100.00
41654;BME280;68687;52.030;7.110;2023-07-31T03:05:37;100108.69;;;15.36;100.00
41654;BME280;68687;52.030;7.110;2023-07-31T03:08:03;100105.34;;;15.34;100.00
41654;BME280;68687;52.030;7.110;2023-07-31T03:10:28;100114.09;;;15.36;100.00
41654;BME280;68687;52.030;7.110;2023-07-31T03:12:54;100109.28;;;15.38;100.00
41654;BME280;68687;52.030;7.110;2023-07-31T03:15:19;100106.41;;;15.33;100.00
41654;BME280;68687;52.030;7.110;2023-07-31T03:17:44;100111.38;;;15.36;100.00
41654;BME280;68687;52.030;7.110;2023-07-31T03:20:10;100097.25;;;15.34;100.00
41654;BME280;68687;52.030;7.110;2023-07-31T03:22:35;100105.34;;;15.34;100.00
41654;BME280;68687;52.030;7.110;2023-07-31T03:25:04;100101.00;;;15.33;100.00
41654;BME280;68687;52.030;7.110;2023-07-31T03:27:29;100103.09;;;15.31;100.00
41654;BME280;68687;52.030;7.110;2023-07-31T03:29:55;100109.28;;;15.38;100.00
41654;BME280;68687;52.030;7.110;2023-07-31T03:32:20;100113.88;;;15.37;100.00
41654;BME280;68687;52.030;7.110;2023-07-31T03:34:45;100105.81;;;15.31;100.00
41654;BME280;68687;52.030;7.110;2023-07-31T03:37:11;100094.84;;;15.26;100.00
41654;BME280;68687;52.030;7.110;2023-07-31T03:39:36;100103.50;;;15.34;100.00
41654;BME280;68687;52.030;7.110;2023-07-31T03:42:01;100109.75;;;15.35;100.00
41654;BME280;68687;52.030;7.110;2023-07-31T03:44:27;100115.75;;;15.37;100.00
41654;BME280;68687;52.030;7.110;2023-07-31T03:46:52;100107.63;;;15.37;100.00
41654;BME280;68687;52.030;7.110;2023-07-31T03:49:18;100101.41;;;15.36;100.00
41654;BME280;68687;52.030;7.110;2023-07-31T03:51:43;100102.66;;;15.34;100.00
41654;BME280;68687;52.030;7.110;2023-07-31T03:54:08;100099.13;;;15.33;100.00
41654;BME280;68687;52.030;7.110;2023-07-31T03:56:34;100096.66;;;15.32;100.00
41654;BME280;68687;52.030;7.110;2023-07-31T03:58:59;100109.75;;;15.35;100.00
41654;BME280;68687;52.030;7.110;2023-07-31T04:01:24;100109.56;;;15.30;100.00
41654;BME280;68687;52.030;7.110;2023-07-31T04:03:50;100113.94;;;15.31;100.00
41654;BME280;68687;52.030;7.110;2023-07-31T04:06:15;100112.28;;;15.30;100.00
41654;BME280;68687;52.030;7.110;2023-07-31T04:08:46;100122.72;;;15.26;100.00
41654;BME280;68687;52.030;7.110;2023-07-31T04:11:11;100119.78;;;15.28;100.00
41654;BME280;68687;52.030;7.110;2023-07-31T04:13:37;100111.09;;;15.26;100.00
41654;BME280;68687;52.030;7.110;2023-07-31T04:16:03;100121.16;;;15.19;100.00
41654;BME280;68687;52.030;7.110;2023-07-31T04:18:28;100112.28;;;15.30;100.00
41654;BME280;68687;52.030;7.110;2023-07-31T04:20:56;100125.66;;;15.25;100.00
41654;BME280;68687;52.030;7.110;2023-07-31T04:23:21;100116.13;;;15.22;100.00
41654;BME280;68687;52.030;7.110;2023-07-31T04:25:47;100123.09;;;15.30;100.00
41654;BME280;68687;52.030;7.110;2023-07-31T04:28:12;100104.72;;;15.20;100.00
41654;BME280;68687;52.030;7.110;2023-07-31T04:30:37;100105.38;;;15.15;100.00
41654;BME280;68687;52.030;7.110;2023-07-31T04:33:03;100116.81;;;15.18;100.00
41654;BME280;68687;52.030;7.110;2023-07-31T04:35:28;100123.63;;;15.20;100.00
41654;BME280;68687;52.030;7.110;2023-07-31T04:37:54;100115.75;;;15.19;100.00
41654;BME280;68687;52.030;7.110;2023-07-31T04:40:19;100117.41;;;15.20;100.00
41654;BME280;68687;52.030;7.110;2023-07-31T04:42:45;100120.94;;;15.20;100.00
41654;BME280;68687;52.030;7.110;2023-07-31T04:45:11;100111.41;;;15.18;100.00
41654;BME280;68687;52.030;7.110;2023-07-31T04:47:36;100115.28;;;15.22;100.00
41654;BME280;68687;52.030;7.110;2023-07-31T04:50:02;100116.56;;;15.19;100.00
41654;BME280;68687;52.030;7.110;2023-07-31T04:52:27;100113.03;;;15.19;100.00
41654;BME280;68687;52.030;7.110;2023-07-31T04:54:53;100119.72;;;15.16;100.00
41654;BME280;68687;52.030;7.110;2023-07-31T04:57:18;100117.13;;;15.09;100.00
41654;BME280;68687;52.030;7.110;2023-07-31T04:59:43;100103.75;;;15.14;100.00
41654;BME280;68687;52.030;7.110;2023-07-31T05:02:09;100105.03;;;15.12;100.00
41654;BME280;68687;52.030;7.110;2023-07-31T05:04:34;100096.44;;;14.97;100.00
41654;BME280;68687;52.030;7.110;2023-07-31T05:06:59;100099.25;;;15.08;100.00
41654;BME280;68687;52.030;7.110;2023-07-31T05:09:24;100107.19;;;15.22;100.00
41654;BME280;68687;52.030;7.110;2023-07-31T05:11:50;100101.91;;;15.27;100.00
41654;BME280;68687;52.030;7.110;2023-07-31T05:14:15;100105.97;;;15.36;100.00
41654;BME280;68687;52.030;7.110;2023-07-31T05:16:41;100093.06;;;15.38;100.00
41654;BME280;68687;52.030;7.110;2023-07-31T05:19:06;100100.63;;;15.29;100.00
41654;BME280;68687;52.030;7.110;2023-07-31T05:21:32;100092.38;;;15.24;100.00
41654;BME280;68687;52.030;7.110;2023-07-31T05:23:57;100100.25;;;15.26;100.00
41654;BME280;68687;52.030;7.110;2023-07-31T05:26:23;100102.88;;;15.32;100.00
41654;BME280;68687;52.030;7.110;2023-07-31T05:28:48;100096.88;;;15.30;100.00
41654;BME280;68687;52.030;7.110;2023-07-31T05:31:13;100093.13;;;15.31;100.00
41654;BME280;68687;52.030;7.110;2023-07-31T05:33:39;100092.88;;;15.33;100.00
41654;BME280;68687;52.030;7.110;2023-07-31T05:36:04;100091.63;;;15.35;100.00
41654;BME280;68687;52.030;7.110;2023-07-31T05:38:30;100091.31;;;15.25;100.00
41654;BME280;68687;52.030;7.110;2023-07-31T05:40:55;100094.75;;;15.32;100.00
41654;BME280;68687;52.030;7.110;2023-07-31T05:43:20;100070.84;;;15.18;100.00
41654;BME280;68687;52.030;7.110;2023-07-31T05:45:46;100073.25;;;15.07;100.00
41654;BME280;68687;52.030;7.110;2023-07-31T05:48:12;100086.59;;;15.21;100.00
41654;BME280;68687;52.030;7.110;2023-07-31T05:50:37;100065.88;;;15.14;100.00
41654;BME280;68687;52.030;7.110;2023-07-31T05:53:05;100072.84;;;15.22;100.00
41654;BME280;68687;52.030;7.110;2023-07-31T05:55:30;100065.34;;;15.24;100.00
41654;BME280;68687;52.030;7.110;2023-07-31T05:57:55;100062.19;;;15.27;100.00
41654;BME280;68687;52.030;7.110;2023-07-31T06:00:21;100064.78;;;15.34;100.00
41654;BME280;68687;52.030;7.110;2023-07-31T06:02:47;100059.84;;;15.31;100.00
41654;BME280;68687;52.030;7.110;2023-07-31T06:05:13;100055.19;;;15.38;100.00
41654;BME280;68687;52.030;7.110;2023-07-31T06:07:38;100056.91;;;15.32;100.00
41654;BME280;68687;52.030;7.110;2023-07-31T06:10:04;100060.03;;;15.48;100.00
41654;BME280;68687;52.030;7.110;2023-07-31T06:12:34;100062.06;;;15.52;100.00
41654;BME280;68687;52.030;7.110;2023-07-31T06:14:59;100057.84;;;15.56;100.00
41654;BME280;68687;52.030;7.110;2023-07-31T06:17:25;100061.16;;;15.58;100.00
41654;BME280;68687;52.030;7.110;2023-07-31T06:19:51;100059.69;;;15.62;100.00
41654;BME280;68687;52.030;7.110;2023-07-31T06:22:17;100060.16;;;15.71;100.00
41654;BME280;68687;52.030;7.110;2023-07-31T06:24:42;100056.88;;;15.69;100.00
41654;BME280;68687;52.030;7.110;2023-07-31T06:27:07;100065.28;;;15.61;100.00
41654;BME280;68687;52.030;7.110;2023-07-31T06:29:33;100056.97;;;15.62;100.00
41654;BME280;68687;52.030;7.110;2023-07-31T06:31:58;100045.53;;;15.60;100.00
41654;BME280;68687;52.030;7.110;2023-07-31T06:34:24;100056.41;;;15.72;100.00
41654;BME280;68687;52.030;7.110;2023-07-31T06:36:49;100058.41;;;15.76;100.00
41654;BME280;68687;52.030;7.110;2023-07-31T06:39:14;100060.06;;;15.77;100.00
41654;BME280;68687;52.030;7.110;2023-07-31T06:41:40;100059.22;;;15.77;100.00
41654;BME280;68687;52.030;7.110;2023-07-31T06:44:05;100063.78;;;15.65;100.00
41654;BME280;68687;52.030;7.110;2023-07-31T06:46:31;100046.50;;;15.66;100.00
41654;BME280;68687;52.030;7.110;2023-07-31T06:48:57;100047.69;;;15.70;100.00
41654;BME280;68687;52.030;7.110;2023-07-31T06:51:22;100050.63;;;15.68;100.00
41654;BME280;68687;52.030;7.110;2023-07-31T06:53:47;100048.31;;;15.54;100.00
41654;BME280;68687;52.030;7.110;2023-07-31T06:56:13;100043.13;;;15.52;100.00
41654;BME280;68687;52.030;7.110;2023-07-31T06:58:38;100043.72;;;15.54;100.00
41654;BME280;68687;52.030;7.110;2023-07-31T07:01:04;100047.00;;;15.56;100.00
41654;BME280;68687;52.030;7.110;2023-07-31T07:03:29;100036.44;;;15.55;100.00
41654;BME280;68687;52.030;7.110;2023-07-31T07:05:54;100035.59;;;15.54;100.00
41654;BME280;68687;52.030;7.110;2023-07-31T07:08:20;100043.13;;;15.52;100.00
41654;BME280;68687;52.030;7.110;2023-07-31T07:10:46;100030.53;;;15.46;100.00
41654;BME280;68687;52.030;7.110;2023-07-31T07:13:11;100026.81;;;15.59;100.00
41654;BME280;68687;52.030;7.110;2023-07-31T07:15:37;100028.69;;;15.58;100.00
41654;BME280;68687;52.030;7.110;2023-07-31T07:18:03;100023.72;;;15.55;100.00
41654;BME280;68687;52.030;7.110;2023-07-31T07:20:28;100016.06;;;15.52;100.00
41654;BME280;68687;52.030;7.110;2023-07-31T07:22:54;100019.72;;;15.58;100.00
41654;BME280;68687;52.030;7.110;2023-07-31T07:25:19;100023.94;;;15.72;100.00
41654;BME280;68687;52.030;7.110;2023-07-31T07:27:44;100024.16;;;15.70;100.00
41654;BME280;68687;52.030;7.110;2023-07-31T07:30:10;100015.22;;;15.82;100.00
41654;BME280;68687;52.030;7.110;2023-07-31T07:32:35;100011.94;;;15.80;100.00
41654;BME280;68687;52.030;7.110;2023-07-31T07:35:00;100015.13;;;15.76;100.00
41654;BME280;68687;52.030;7.110;2023-07-31T07:37:25;99992.75;;;15.69;100.00
41654;BME280;68687;52.030;7.110;2023-07-31T07:39:51;100007.69;;;15.84;100.00
41654;BME280;68687;52.030;7.110;2023-07-31T07:42:16;100009.47;;;15.78;100.00
41654;BME280;68687;52.030;7.110;2023-07-31T07:44:41;100007.94;;;15.82;100.00
41654;BME280;68687;52.030;7.110;2023-07-31T07:47:07;100009.00;;;15.81;100.00
41654;BME280;68687;52.030;7.110;2023-07-31T07:49:33;100005.28;;;15.94;100.00
41654;BME280;68687;52.030;7.110;2023-07-31T07:52:00;100007.22;;;15.87;100.00
41654;BME280;68687;52.030;7.110;2023-07-31T07:54:25;99994.31;;;16.00;100.00
41654;BME280;68687;52.030;7.110;2023-07-31T07:56:50;99994.19;;;15.84;100.00
41654;BME280;68687;52.030;7.110;2023-07-31T07:59:15;99993.03;;;15.91;100.00
41654;BME280;68687;52.030;7.110;2023-07-31T08:01:41;99987.00;;;15.77;100.00
41654;BME280;68687;52.030;7.110;2023-07-31T08:04:06;99988.91;;;15.89;100.00
41654;BME280;68687;52.030;7.110;2023-07-31T08:06:31;99990.19;;;15.86;100.00
41654;BME280;68687;52.030;7.110;2023-07-31T08:08:57;99981.22;;;15.86;100.00
41654;BME280;68687;52.030;7.110;2023-07-31T08:11:22;99972.44;;;16.02;100.00
41654;BME280;68687;52.030;7.110;2023-07-31T08:13:49;99975.59;;;15.99;100.00
41654;BME280;68687;52.030;7.110;2023-07-31T08:16:14;99968.19;;;16.06;100.00
41654;BME280;68687;52.030;7.110;2023-07-31T08:18:39;99963.47;;;16.01;100.00
41654;BME280;68687;52.030;7.110;2023-07-31T08:21:05;99962.53;;;16.07;100.00
41654;BME280;68687;52.030;7.110;2023-07-31T08:23:31;99964.19;;;16.08;100.00
41654;BME280;68687;52.030;7.110;2023-07-31T08:25:56;99958.53;;;16.10;100.00
41654;BME280;68687;52.030;7.110;2023-07-31T08:28:21;99953.13;;;16.10;100.00
41654;BME280;68687;52.030;7.110;2023-07-31T08:30:47;99958.78;;;16.08;100.00
41654;BME280;68687;52.030;7.110;2023-07-31T08:33:12;99953.69;;;16.12;100.00
41654;BME280;68687;52.030;7.110;2023-07-31T08:35:37;99945.81;;;16.11;100.00
41654;BME280;68687;52.030;7.110;2023-07-31T08:38:03;99950.06;;;16.18;100.00
41654;BME280;68687;52.030;7.110;2023-07-31T08:40:28;99939.00;;;16.20;100.00
41654;BME280;68687;52.030;7.110;2023-07-31T08:42:54;99949.59;;;16.21;100.00
41654;BME280;68687;52.030;7.110;2023-07-31T08:45:22;99962.66;;;16.24;100.00
41654;BME280;68687;52.030;7.110;2023-07-31T08:47:49;99943.81;;;16.29;100.00
41654;BME280;68687;52.030;7.110;2023-07-31T08:50:16;99937.47;;;16.12;100.00
41654;BME280;68687;52.030;7.110;2023-07-31T08:52:42;99947.78;;;16.38;100.00
41654;BME280;68687;52.030;7.110;2023-07-31T08:55:08;99941.22;;;16.34;100.00
41654;BME280;68687;52.030;7.110;2023-07-31T08:57:35;99945.13;;;16.27;100.00
41654;BME280;68687;52.030;7.110;2023-07-31T09:00:02;99940.53;;;16.27;100.00
41654;BME280;68687;52.030;7.110;2023-07-31T09:02:34;99945.72;;;16.17;100.00
41654;BME280;68687;52.030;7.110;2023-07-31T09:05:01;99957.22;;;16.13;100.00
41654;BME280;68687;52.030;7.110;2023-07-31T09:07:28;99953.13;;;16.22;100.00
41654;BME280;68687;52.030;7.110;2023-07-31T09:09:54;99947.94;;;16.20;100.00
41654;BME280;68687;52.030;7.110;2023-07-31T09:12:19;99955.59;;;16.23;100.00
41654;BME280;68687;52.030;7.110;2023-07-31T09:14:46;99949.72;;;16.26;100.00
41654;BME280;68687;52.030;7.110;2023-07-31T09:17:12;99933.66;;;16.36;100.00
41654;BME280;68687;52.030;7.110;2023-07-31T09:19:37;99936.63;;;16.12;100.00
41654;BME280;68687;52.030;7.110;2023-07-31T09:22:04;99934.28;;;16.27;100.00
41654;BME280;68687;52.030;7.110;2023-07-31T09:24:31;99935.94;;;16.16;100.00
41654;BME280;68687;52.030;7.110;2023-07-31T09:26:58;99938.41;;;16.29;100.00
41654;BME280;68687;52.030;7.110;2023-07-31T09:29:24;99937.81;;;16.16;100.00
41654;BME280;68687;52.030;7.110;2023-07-31T09:31:51;99943.47;;;16.26;100.00
41654;BME280;68687;52.030;7.110;2023-07-31T09:34:17;99943.13;;;16.22;100.00
41654;BME280;68687;52.030;7.110;2023-07-31T09:36:47;99946.41;;;16.24;100.00
41654;BME280;68687;52.030;7.110;2023-07-31T09:39:14;99949.72;;;16.26;100.00
41654;BME280;68687;52.030;7.110;2023-07-31T09:41:55;99939.81;;;16.32;100.00
41654;BME280;68687;52.030;7.110;2023-07-31T09:44:20;99931.81;;;16.25;100.00
41654;BME280;68687;52.030;7.110;2023-07-31T09:46:46;99939.44;;;16.52;100.00
41654;BME280;68687;52.030;7.110;2023-07-31T09:49:13;99939.88;;;16.60;100.00
41654;BME280;68687;52.030;7.110;2023-07-31T09:51:40;99929.28;;;16.59;100.00
41654;BME280;68687;52.030;7.110;2023-07-31T09:54:13;99925.19;;;16.45;100.00
41654;BME280;68687;52.030;7.110;2023-07-31T09:56:42;99927.28;;;16.66;100.00
41654;BME280;68687;52.030;7.110;2023-07-31T09:59:11;99925.59;;;16.65;100.00
41654;BME280;68687;52.030;7.110;2023-07-31T10:01:37;99923.38;;;16.62;100.00
41654;BME280;68687;52.030;7.110;2023-07-31T10:04:04;99921.72;;;16.61;100.00
41654;BME280;68687;52.030;7.110;2023-07-31T10:06:30;99922.44;;;16.68;100.00
41654;BME280;68687;52.030;7.110;2023-07-31T10:08:58;99918.19;;;16.60;100.00
41654;BME280;68687;52.030;7.110;2023-07-31T10:11:25;99921.19;;;16.47;100.00
41654;BME280;68687;52.030;7.110;2023-07-31T10:13:53;99923.50;;;16.67;100.00
41654;BME280;68687;52.030;7.110;2023-07-31T10:16:19;99923.38;;;16.74;100.00
41654;BME280;68687;52.030;7.110;2023-07-31T10:18:45;99926.19;;;16.79;100.00
41654;BME280;68687;52.030;7.110;2023-07-31T10:21:11;99927.59;;;16.69;100.00
41654;BME280;68687;52.030;7.110;2023-07-31T10:23:37;99928.41;;;16.82;100.00
41654;BME280;68687;52.030;7.110;2023-07-31T10:26:05;99922.25;;;16.86;100.00
41654;BME280;68687;52.030;7.110;2023-07-31T10:28:32;99936.19;;;16.78;100.00
41654;BME280;68687;52.030;7.110;2023-07-31T10:30:58;99921.59;;;16.79;100.00
41654;BME280;68687;52.030;7.110;2023-07-31T10:33:24;99924.38;;;16.84;100.00
41654;BME280;68687;52.030;7.110;2023-07-31T10:35:49;99923.31;;;16.85;100.00
41654;BME280;68687;52.030;7.110;2023-07-31T10:38:18;99916.16;;;16.79;100.00
41654;BME280;68687;52.030;7.110;2023-07-31T10:40:43;99920.53;;;16.80;100.00
41654;BME280;68687;52.030;7.110;2023-07-31T10:43:23;99916.84;;;16.86;100.00
41654;BME280;68687;52.030;7.110;2023-07-31T10:45:50;99906.91;;;16.92;100.00
41654;BME280;68687;52.030;7.110;2023-07-31T10:48:16;99903.19;;;16.81;100.00
41654;BME280;68687;52.030;7.110;2023-07-31T10:53:31;99917.91;;;16.85;100.00
41654;BME280;68687;52.030;7.110;2023-07-31T10:56:05;99920.44;;;16.75;100.00
41654;BME280;68687;52.030;7.110;2023-07-31T10:58:31;99922.00;;;16.88;100.00
41654;BME280;68687;52.030;7.110;2023-07-31T11:01:02;99914.13;;;16.86;100.00
41654;BME280;68687;52.030;7.110;2023-07-31T11:04:00;99910.59;;;16.86;100.00
41654;BME280;68687;52.030;7.110;2023-07-31T11:06:36;99914.44;;;16.73;100.00
41654;BME280;68687;52.030;7.110;2023-07-31T11:09:01;99905.41;;;16.84;100.00
41654;BME280;68687;52.030;7.110;2023-07-31T11:11:27;99918.47;;;16.87;100.00
41654;BME280;68687;52.030;7.110;2023-07-31T11:13:53;99916.88;;;16.63;100.00
41654;BME280;68687;52.030;7.110;2023-07-31T11:16:23;99917.56;;;16.82;100.00
41654;BME280;68687;52.030;7.110;2023-07-31T11:18:49;99908.38;;;16.83;100.00
41654;BME280;68687;52.030;7.110;2023-07-31T11:21:23;99909.00;;;16.73;100.00
41654;BME280;68687;52.030;7.110;2023-07-31T11:23:51;99909.78;;;16.85;100.00
41654;BME280;68687;52.030;7.110;2023-07-31T11:26:18;99911.31;;;16.81;100.00
41654;BME280;68687;52.030;7.110;2023-07-31T11:28:43;99913.38;;;16.74;100.00
41654;BME280;68687;52.030;7.110;2023-07-31T11:31:11;99910.91;;;16.73;100.00
41654;BME280;68687;52.030;7.110;2023-07-31T11:33:37;99910.34;;;16.87;100.00
41654;BME280;68687;52.030;7.110;2023-07-31T11:36:02;99911.50;;;16.91;100.00
41654;BME280;68687;52.030;7.110;2023-07-31T11:38:34;99903.09;;;16.76;100.00
41654;BME280;68687;52.030;7.110;2023-07-31T11:41:01;99890.78;;;16.85;100.00
41654;BME280;68687;52.030;7.110;2023-07-31T11:43:28;99890.72;;;16.97;100.00
41654;BME280;68687;52.030;7.110;2023-07-31T11:45:59;99891.72;;;16.91;100.00
41654;BME280;68687;52.030;7.110;2023-07-31T11:48:27;99893.03;;;16.88;100.00
41654;BME280;68687;52.030;7.110;2023-07-31T11:50:59;99896.31;;;16.90;100.00
41654;BME280;68687;52.030;7.110;2023-07-31T11:53:36;99882.72;;;17.02;100.00
41654;BME280;68687;52.030;7.110;2023-07-31T11:56:03;99885.91;;;16.99;100.00
41654;BME280;68687;52.030;7.110;2023-07-31T11:58:30;99881.09;;;17.18;100.00
41654;BME280;68687;52.030;7.110;2023-07-31T12:00:56;99886.84;;;17.21;100.00
41654;BME280;68687;52.030;7.110;2023-07-31T12:03:23;99887.97;;;17.25;100.00
41654;BME280;68687;52.030;7.110;2023-07-31T12:05:48;99884.94;;;17.05;100.00
41654;BME280;68687;52.030;7.110;2023-07-31T12:08:14;99875.91;;;17.16;100.00
41654;BME280;68687;52.030;7.110;2023-07-31T12:10:41;99890.22;;;17.28;100.00
41654;BME280;68687;52.030;7.110;2023-07-31T12:13:10;99882.91;;;17.46;100.00
41654;BME280;68687;52.030;7.110;2023-07-31T12:15:40;99885.38;;;17.47;100.00
41654;BME280;68687;52.030;7.110;2023-07-31T12:18:07;99880.53;;;17.49;100.00
41654;BME280;68687;52.030;7.110;2023-07-31T12:20:33;99883.41;;;17.59;100.00
41654;BME280;68687;52.030;7.110;2023-07-31T12:22:59;99877.47;;;17.46;100.00
41654;BME280;68687;52.030;7.110;2023-07-31T12:25:29;99879.13;;;17.30;100.00
41654;BME280;68687;52.030;7.110;2023-07-31T12:27:55;99873.94;;;17.45;100.00
41654;BME280;68687;52.030;7.110;2023-07-31T12:30:32;99872.56;;;17.26;100.00
41654;BME280;68687;52.030;7.110;2023-07-31T12:33:02;99876.75;;;17.34;100.00
41654;BME280;68687;52.030;7.110;2023-07-31T12:35:35;99878.56;;;17.28;100.00
41654;BME280;68687;52.030;7.110;2023-07-31T12:38:03;99885.13;;;17.32;100.00
41654;BME280;68687;52.030;7.110;2023-07-31T12:40:29;99883.16;;;17.44;100.00
41654;BME280;68687;52.030;7.110;2023-07-31T12:42:54;99879.38;;;17.45;100.00